Impacts TAF Board INFO
FOR SITUATIONAL AWARENESS. NOT TO BE USED FOR FLIGHT PLANNING PURPOSES.
IDs:

KCLT - Charlotte/Douglas In, NC, US

Issued at 2337 UTC 25 Mar 2017
Updated at 0329 UTC 26 Mar 2017
Potential Impact None Slight Moderate High
Time0252Z 26/04Z 26/05Z 26/06Z 26/07Z 26/08Z 26/09Z 26/10Z 26/11Z 26/12Z 26/13Z 26/14Z 26/15Z 26/16Z
Type OBS PRVL PRVL PRVL PRVL PRVL PRVL PRVL PRVL PRVL PRVL PRVL
  [PRB30]  
PRVL
  [PRB30]  
PRVL
  [PRB30]  
VIS 10 >6 >6 >6 >6 >6 >6 >6 >6 >6 >6 >6
  [4]  
>6
  [4]  
>6
  [4]  
CIG 65 250 250 250 250 250 250 250 250 15 15 15
  [7]  
15
  [7]  
15
  [7]  
Cover BKN BKN BKN BKN BKN BKN BKN BKN BKN BKN BKN BKN
  [OVC]  
BKN
  [OVC]  
BKN
  [OVC]  
FltCat VFR VFR VFR VFR VFR VFR VFR VFR VFR MVFR MVFR MVFR
  [IFR]  
MVFR
  [IFR]  
MVFR
  [IFR]  
WX -- -- -- -- -- -- -- -- -- -- -- --
  [-SHRA]  
--
  [-SHRA]  
--
  [-SHRA]  
WDir 170 160 160 160 160 160 160 160 160 150 150 150
[150]
150
[150]
150
[150]
WSpd 13 6 6 6 6 6 6 6 6 5 5 5
  [5]  
5
  [5]  
5
  [5]  
WGst -- -- -- -- -- -- -- -- -- -- -- --
  [--]  
--
  [--]  
--
  [--]  

Raw TAF
KCLT 252337Z 2600/2624 18007KT P6SM BKN060 BKN250
  FM260300 16006KT P6SM SCT060 BKN250
  FM261200 15005KT P6SM BKN015
  PROB30 2614/2618 4SM -SHRA OVC007
  FM261800 17011G19KT P6SM VCSH BKN035
  PROB30 2618/2624 4SM -SHRA OVC015


Raw METAR
KCLT 260252Z 17013KT 10SM BKN065 BKN250 19/09 A3021 RMK AO2 SLP225 T01890094 51007
KCLT 260152Z 15005KT 10SM FEW070 SCT250 18/09 A3021 RMK AO2 SLP224 T01780089
KCLT 260052Z 17004KT 10SM FEW070 SCT250 19/08 A3020 RMK AO2 SLP222 T01890083

METAR Board
Radar Display
Forecast Discussion

FOR SITUATIONAL AWARENESS. NOT TO BE USED FOR FLIGHT PLANNING PURPOSES.

Page loaded:  03:29 UTC  |   08:29 PM Pacific  |   09:29 PM Mountain  |   10:29 PM Central  |   11:29 PM Eastern

 

ADVISORIES

FORECASTS

FORECASTS

OBSERVATIONS

USER TOOLS

ABOUT US